createdAt,value
2019-06-08T00:01:23.054Z,1.23
2019-06-08T00:03:56.681Z,1.03
2019-06-08T00:06:30.081Z,0.87
2019-06-08T00:09:06.938Z,1.00
2019-06-08T00:11:38.680Z,0.93
2019-06-08T00:14:09.403Z,0.83
2019-06-08T00:16:41.908Z,1.00
2019-06-08T00:19:15.299Z,0.90
2019-06-08T00:21:47.015Z,1.00
2019-06-08T00:24:18.367Z,0.93
2019-06-08T00:26:48.852Z,1.10
2019-06-08T00:29:20.296Z,0.90
2019-06-08T00:31:52.135Z,0.90
2019-06-08T00:34:25.126Z,1.03
2019-06-08T00:36:56.476Z,1.00
2019-06-08T00:39:26.603Z,0.97
2019-06-08T00:41:56.871Z,1.03
2019-06-08T00:44:27.908Z,1.10
2019-06-08T00:47:02.509Z,1.10
2019-06-08T00:49:37.857Z,1.20
2019-06-08T00:52:09.851Z,1.20
2019-06-08T00:54:43.371Z,1.37
2019-06-08T00:57:14.827Z,1.07
2019-06-08T00:59:46.442Z,1.07
2019-06-08T01:02:16.635Z,0.93
2019-06-08T01:04:50.153Z,1.30
2019-06-08T01:07:20.361Z,1.00
2019-06-08T01:09:51.465Z,1.03
2019-06-08T01:12:22.650Z,1.30
2019-06-08T01:15:03.079Z,1.00
2019-06-08T01:17:33.935Z,1.00
2019-06-08T01:20:07.542Z,1.00
2019-06-08T01:22:47.380Z,1.07
2019-06-08T01:25:20.262Z,1.00
2019-06-08T01:27:53.958Z,1.10
2019-06-08T01:30:28.516Z,1.00
2019-06-08T01:32:59.532Z,1.07
2019-06-08T01:35:32.095Z,1.00
2019-06-08T01:38:03.725Z,1.10
2019-06-08T01:40:36.217Z,1.00
2019-06-08T01:43:11.093Z,0.90
2019-06-08T01:45:41.430Z,1.10
2019-06-08T01:48:20.161Z,1.17
2019-06-08T01:50:46.286Z,1.00
2019-06-08T01:53:16.572Z,1.10
2019-06-08T01:55:46.876Z,1.07
2019-06-08T01:58:18.833Z,1.00
2019-06-08T02:00:50.334Z,1.10
2019-06-08T02:03:21.080Z,1.10
2019-06-08T02:05:53.807Z,1.10
2019-06-08T02:08:30.654Z,1.00
2019-06-08T02:11:03.069Z,1.10
2019-06-08T02:13:35.974Z,1.20
2019-06-08T02:16:11.108Z,1.30
2019-06-08T02:18:50.757Z,1.27
2019-06-08T02:21:18.117Z,1.13
2019-06-08T02:23:48.420Z,1.57
2019-06-08T02:26:22.271Z,1.10
2019-06-08T02:28:53.314Z,1.17
2019-06-08T02:31:34.834Z,1.23
2019-06-08T02:34:05.320Z,1.30
2019-06-08T02:36:38.340Z,1.23
2019-06-08T02:39:09.607Z,1.10
2019-06-08T02:41:42.050Z,1.10
2019-06-08T02:44:14.583Z,1.50
2019-06-08T02:46:46.046Z,1.30
2019-06-08T02:49:17.200Z,1.20
2019-06-08T02:51:52.487Z,1.50
2019-06-08T02:54:23.993Z,1.20
2019-06-08T02:56:56.679Z,1.30
2019-06-08T02:59:31.364Z,1.30
2019-06-08T03:02:04.723Z,1.30
2019-06-08T03:04:38.821Z,1.50
2019-06-08T03:07:11.215Z,1.40
2019-06-08T03:09:44.632Z,1.87
2019-06-08T03:12:19.639Z,1.57
2019-06-08T03:14:53.538Z,1.60
2019-06-08T03:17:35.577Z,1.53
2019-06-08T03:20:07.607Z,1.50
2019-06-08T03:22:41.880Z,1.60
2019-06-08T03:25:11.360Z,1.40
2019-06-08T03:27:43.728Z,1.60
2019-06-08T03:30:18.578Z,1.73
2019-06-08T03:32:55.741Z,1.40
2019-06-08T03:35:24.126Z,1.67
2019-06-08T03:37:55.793Z,1.70
2019-06-08T03:40:26.025Z,1.57
2019-06-08T03:43:00.306Z,1.60
2019-06-08T03:45:34.193Z,1.30
2019-06-08T03:48:04.701Z,1.40
2019-06-08T03:50:35.466Z,1.30
2019-06-08T03:53:12.036Z,1.40
2019-06-08T03:55:45.441Z,1.60
2019-06-08T03:58:15.487Z,1.40
2019-06-08T04:00:47.069Z,1.60
2019-06-08T04:03:22.117Z,1.57
2019-06-08T04:05:55.695Z,1.57
2019-06-08T04:08:27.488Z,1.80
2019-06-08T04:11:02.791Z,1.63
2019-06-08T04:13:34.345Z,1.50
2019-06-08T04:16:06.595Z,1.53
2019-06-08T04:18:38.077Z,1.60
2019-06-08T04:21:11.152Z,1.70
2019-06-08T04:23:45.344Z,1.47
2019-06-08T04:26:18.584Z,1.70
2019-06-08T04:28:55.092Z,1.43
2019-06-08T04:31:27.247Z,1.50
2019-06-08T04:33:59.683Z,1.50
2019-06-08T04:36:29.927Z,1.80
2019-06-08T04:39:07.732Z,1.57
2019-06-08T04:41:40.588Z,1.70
2019-06-08T04:44:12.827Z,1.40
2019-06-08T04:46:54.410Z,1.70
2019-06-08T04:49:26.804Z,1.43
2019-06-08T04:52:02.963Z,1.80
2019-06-08T04:54:40.809Z,1.97
2019-06-08T04:57:16.098Z,1.50
2019-06-08T04:59:52.297Z,1.43
2019-06-08T05:02:26.078Z,1.57
2019-06-08T05:05:02.032Z,2.00
2019-06-08T05:07:39.334Z,1.50
2019-06-08T05:10:14.461Z,1.57
2019-06-08T05:12:51.140Z,1.70
2019-06-08T05:15:26.254Z,1.77
2019-06-08T05:18:00.568Z,1.50
2019-06-08T05:20:38.933Z,1.90
2019-06-08T05:23:07.624Z,1.90
2019-06-08T05:25:39.376Z,1.40
2019-06-08T05:28:12.549Z,1.50
2019-06-08T05:30:45.264Z,1.70
2019-06-08T05:33:19.262Z,1.77
2019-06-08T05:35:52.944Z,1.80
2019-06-08T05:38:23.986Z,1.80
2019-06-08T05:40:55.746Z,1.67
2019-06-08T05:43:27.185Z,1.60
2019-06-08T05:46:00.071Z,1.60
2019-06-08T05:48:31.864Z,1.43
2019-06-08T05:51:09.933Z,1.50
2019-06-08T05:53:43.819Z,1.70
2019-06-08T05:56:14.890Z,1.70
2019-06-08T05:58:46.003Z,1.43
2019-06-08T06:01:17.217Z,2.07
2019-06-08T06:03:48.782Z,1.90
2019-06-08T06:06:21.109Z,1.80
2019-06-08T06:08:51.963Z,1.70
2019-06-08T06:11:22.224Z,1.47
2019-06-08T06:13:52.694Z,1.63
2019-06-08T06:16:25.005Z,1.80
2019-06-08T06:18:59.529Z,1.70
2019-06-08T06:21:31.745Z,1.67
2019-06-08T06:24:07.177Z,2.00
2019-06-08T06:26:41.299Z,1.70
2019-06-08T06:29:15.790Z,1.67
2019-06-08T06:31:51.934Z,2.20
2019-06-08T06:34:25.277Z,1.80
2019-06-08T06:37:01.085Z,1.90
2019-06-08T06:39:33.683Z,1.50
2019-06-08T06:42:07.928Z,1.90
2019-06-08T06:44:38.738Z,1.80
2019-06-08T06:47:13.838Z,1.80
2019-06-08T06:49:44.597Z,1.80
2019-06-08T06:52:17.768Z,1.60
2019-06-08T06:54:53.157Z,1.70
2019-06-08T06:57:23.942Z,1.83
2019-06-08T06:59:56.063Z,1.60
2019-06-08T07:02:32.695Z,1.67
2019-06-08T07:05:07.438Z,1.63
2019-06-08T07:08:01.398Z,1.80
2019-06-08T07:10:38.225Z,1.40
2019-06-08T07:13:12.705Z,1.77
2019-06-08T07:16:17.203Z,1.63
2019-06-08T07:18:36.089Z,1.60
2019-06-08T07:21:11.963Z,1.80
2019-06-08T07:23:46.304Z,1.80
2019-06-08T07:26:17.692Z,1.63
2019-06-08T07:28:52.430Z,1.73
2019-06-08T07:31:23.204Z,1.53
2019-06-08T07:33:57.452Z,1.60
2019-06-08T07:36:28.029Z,1.57
2019-06-08T07:38:59.651Z,1.70
2019-06-08T07:41:32.716Z,1.50
2019-06-08T07:44:03.741Z,1.40
2019-06-08T07:46:36.464Z,1.67
2019-06-08T07:49:06.911Z,1.60
2019-06-08T07:51:37.925Z,1.50
2019-06-08T07:54:09.351Z,1.80
2019-06-08T07:56:41.189Z,1.63
2019-06-08T07:59:12.786Z,1.60
2019-06-08T08:01:51.905Z,1.50
2019-06-08T08:04:22.690Z,1.83
2019-06-08T08:07:08.772Z,1.60
2019-06-08T08:09:59.207Z,1.43
2019-06-08T08:12:34.215Z,1.50
2019-06-08T08:15:06.784Z,1.93
2019-06-08T08:17:37.817Z,1.70
2019-06-08T08:20:10.570Z,1.73
2019-06-08T08:22:42.608Z,1.40
2019-06-08T08:25:12.989Z,1.50
2019-06-08T08:27:52.387Z,1.60
2019-06-08T08:30:23.647Z,1.70
2019-06-08T08:32:57.105Z,1.60
2019-06-08T08:35:28.023Z,1.40
2019-06-08T08:38:03.022Z,1.80
2019-06-08T08:40:31.709Z,1.90
2019-06-08T08:43:03.883Z,1.90
2019-06-08T08:45:37.306Z,1.70
2019-06-08T08:48:24.444Z,1.93
2019-06-08T08:50:48.340Z,1.73
2019-06-08T08:53:21.925Z,1.57
2019-06-08T08:55:52.386Z,2.00
2019-06-08T08:58:24.102Z,1.60
2019-06-08T09:00:57.560Z,1.70
2019-06-08T09:03:33.457Z,1.60
2019-06-08T09:06:03.942Z,1.80
2019-06-08T09:08:37.577Z,1.60
2019-06-08T09:11:11.157Z,1.70
2019-06-08T09:13:45.331Z,1.60
2019-06-08T09:16:18.443Z,1.90
2019-06-08T09:18:53.924Z,1.73
2019-06-08T09:21:27.951Z,1.70
2019-06-08T09:24:01.979Z,1.70
2019-06-08T09:26:38.264Z,1.50
2019-06-08T09:29:13.140Z,1.80
2019-06-08T09:31:45.407Z,1.90
2019-06-08T09:34:19.283Z,1.90
2019-06-08T09:36:49.953Z,1.83
2019-06-08T09:39:24.052Z,1.73
2019-06-08T09:42:00.455Z,1.70
2019-06-08T09:44:34.812Z,1.63
2019-06-08T09:47:12.385Z,1.60
2019-06-08T09:49:48.140Z,1.90
2019-06-08T09:52:21.655Z,1.73
2019-06-08T09:54:56.939Z,1.47
2019-06-08T09:57:28.724Z,1.60
2019-06-08T10:00:04.353Z,1.80
2019-06-08T10:02:33.602Z,2.27
2019-06-08T10:05:06.332Z,1.80
2019-06-08T10:07:39.236Z,1.40
2019-06-08T10:10:10.357Z,2.00
2019-06-08T10:12:44.522Z,1.70
2019-06-08T10:15:18.007Z,1.77
2019-06-08T10:17:52.189Z,1.77
2019-06-08T10:20:28.810Z,1.90
2019-06-08T10:23:01.160Z,1.60
2019-06-08T10:25:34.005Z,1.60
2019-06-08T10:28:10.122Z,1.47
2019-06-08T10:30:40.194Z,1.40
2019-06-08T10:33:10.512Z,1.77
2019-06-08T10:35:41.385Z,1.83
2019-06-08T10:38:12.183Z,1.57
2019-06-08T10:41:10.801Z,1.60
2019-06-08T10:43:38.523Z,1.40
2019-06-08T10:46:16.683Z,1.70
2019-06-08T10:48:42.203Z,1.77
2019-06-08T10:51:14.187Z,2.00
2019-06-08T10:53:52.094Z,1.80
2019-06-08T10:56:25.263Z,1.70
2019-06-08T10:58:58.054Z,1.70
2019-06-08T11:01:30.708Z,1.60
2019-06-08T11:04:01.952Z,1.53
2019-06-08T11:06:39.895Z,1.70
2019-06-08T11:09:13.205Z,1.60
2019-06-08T11:11:40.511Z,1.50
2019-06-08T11:14:13.358Z,1.70
2019-06-08T11:16:47.597Z,1.83
2019-06-08T11:19:19.150Z,1.70
2019-06-08T11:21:49.841Z,1.50
2019-06-08T11:24:24.495Z,1.77
2019-06-08T11:26:54.470Z,1.60
2019-06-08T11:29:30.778Z,1.70
2019-06-08T11:32:06.547Z,1.70
2019-06-08T11:34:40.791Z,1.73
2019-06-08T11:37:17.881Z,1.60
2019-06-08T11:39:49.175Z,1.50
2019-06-08T11:42:19.347Z,1.60
2019-06-08T11:44:58.721Z,1.90
2019-06-08T11:47:33.652Z,1.70
2019-06-08T11:50:07.285Z,1.90
2019-06-08T11:52:40.509Z,1.87
2019-06-08T11:55:13.171Z,1.70
2019-06-08T11:57:48.846Z,1.60
2019-06-08T12:00:44.207Z,1.73
2019-06-08T12:03:16.061Z,1.80
2019-06-08T12:05:47.839Z,1.70
2019-06-08T12:08:20.898Z,1.60
2019-06-08T12:10:51.377Z,1.83
2019-06-08T12:13:22.363Z,1.53
2019-06-08T12:16:22.053Z,1.40
2019-06-08T12:18:53.000Z,1.57
2019-06-08T12:21:23.259Z,1.57
2019-06-08T12:23:53.857Z,1.77
2019-06-08T12:26:26.106Z,1.60
2019-06-08T12:29:01.206Z,1.77
2019-06-08T12:31:30.181Z,1.60
2019-06-08T12:34:00.663Z,1.70
2019-06-08T12:36:33.838Z,1.80
2019-06-08T12:39:10.069Z,1.87
2019-06-08T12:41:41.174Z,1.77
2019-06-08T12:44:14.682Z,1.87
2019-06-08T12:46:48.351Z,1.80
2019-06-08T12:49:18.798Z,2.00
2019-06-08T12:51:51.704Z,1.77
2019-06-08T12:54:23.511Z,1.90
2019-06-08T12:56:57.971Z,1.60
2019-06-08T12:59:34.485Z,1.70
2019-06-08T13:02:10.605Z,1.80
2019-06-08T13:04:40.486Z,1.53
2019-06-08T13:07:14.798Z,1.63
2019-06-08T13:09:48.171Z,1.60
2019-06-08T13:12:20.371Z,1.80
2019-06-08T13:14:52.165Z,1.67
2019-06-08T13:17:22.805Z,1.70
2019-06-08T13:19:53.421Z,1.60
2019-06-08T13:22:29.053Z,1.77
2019-06-08T13:25:15.099Z,1.60
2019-06-08T13:27:32.709Z,1.37
2019-06-08T13:30:07.650Z,1.60
2019-06-08T13:32:40.747Z,1.37
2019-06-08T13:35:12.199Z,1.53
2019-06-08T13:37:42.603Z,1.40
2019-06-08T13:40:15.304Z,1.15
2019-06-08T13:42:45.462Z,1.47
2019-06-08T13:45:18.826Z,1.57
2019-06-08T13:47:50.497Z,1.70
2019-06-08T13:50:22.627Z,1.42
2019-06-08T13:52:55.143Z,1.63
2019-06-08T13:55:42.588Z,1.57
2019-06-08T13:57:58.122Z,1.30
2019-06-08T14:00:38.339Z,1.60
2019-06-08T14:03:08.980Z,1.67
2019-06-08T14:05:39.310Z,1.40
2019-06-08T14:08:10.935Z,1.40
2019-06-08T14:10:44.714Z,1.70
2019-06-08T14:13:15.220Z,1.32
2019-06-08T14:15:45.467Z,1.60
2019-06-08T14:18:22.616Z,1.52
2019-06-08T14:20:49.070Z,1.65
2019-06-08T14:23:22.794Z,1.50
2019-06-08T14:25:56.699Z,1.50
2019-06-08T14:28:26.078Z,1.60
2019-06-08T14:30:59.358Z,1.40
2019-06-08T14:33:34.638Z,1.40
2019-06-08T14:36:07.988Z,1.33
2019-06-08T14:38:41.696Z,1.40
2019-06-08T14:41:10.987Z,2.00
2019-06-08T14:43:41.316Z,1.50
2019-06-08T14:46:11.541Z,1.40
2019-06-08T14:48:45.209Z,2.00
2019-06-08T14:51:16.694Z,1.90
2019-06-08T14:53:48.635Z,2.30
2019-06-08T14:56:20.144Z,1.60
2019-06-08T14:58:52.588Z,1.35
2019-06-08T15:01:26.339Z,1.30
2019-06-08T15:03:58.656Z,1.40
2019-06-08T15:06:33.961Z,1.35
2019-06-08T15:09:00.877Z,1.75
2019-06-08T15:11:35.257Z,1.60
2019-06-08T15:14:08.517Z,1.35
2019-06-08T15:16:38.588Z,1.35
2019-06-08T15:19:12.098Z,1.30
2019-06-08T15:21:43.587Z,1.30
2019-06-08T15:24:18.575Z,1.40
2019-06-08T15:26:50.587Z,1.62
2019-06-08T15:29:24.952Z,1.32
2019-06-08T15:31:58.490Z,1.52
2019-06-08T15:34:32.936Z,1.60
2019-06-08T15:37:05.287Z,1.40
2019-06-08T15:39:35.511Z,1.50
2019-06-08T15:42:10.267Z,1.20
2019-06-08T15:44:42.138Z,1.60
2019-06-08T15:47:14.680Z,1.27
2019-06-08T15:49:50.222Z,1.47
2019-06-08T15:52:22.387Z,1.55
2019-06-08T15:54:52.622Z,1.67
2019-06-08T15:57:24.619Z,1.52
2019-06-08T15:59:54.929Z,1.30
2019-06-08T16:02:29.423Z,1.30
2019-06-08T16:05:02.408Z,1.50
2019-06-08T16:07:35.611Z,1.50
2019-06-08T16:10:08.202Z,1.40
2019-06-08T16:12:38.855Z,1.73
2019-06-08T16:15:14.807Z,1.47
2019-06-08T16:17:48.005Z,1.50
2019-06-08T16:20:21.296Z,1.40
2019-06-08T16:22:52.069Z,1.47
2019-06-08T16:25:22.636Z,1.50
2019-06-08T16:27:55.645Z,1.50
2019-06-08T16:30:28.891Z,1.40
2019-06-08T16:33:00.931Z,1.73
2019-06-08T16:35:31.535Z,1.53
2019-06-08T16:38:04.089Z,1.53
2019-06-08T16:40:34.420Z,1.90
2019-06-08T16:43:06.625Z,1.80
2019-06-08T16:45:39.434Z,1.80
2019-06-08T16:48:11.022Z,1.80
2019-06-08T16:50:41.965Z,2.33
2019-06-08T16:53:12.894Z,2.00
2019-06-08T16:55:45.434Z,1.80
2019-06-08T16:58:16.020Z,1.90
2019-06-08T17:00:49.106Z,1.67
2019-06-08T17:03:21.366Z,2.10
2019-06-08T17:05:53.327Z,1.67
2019-06-08T17:08:23.567Z,1.60
2019-06-08T17:10:54.099Z,1.90
2019-06-08T17:13:26.244Z,1.70
2019-06-08T17:15:58.539Z,1.83
2019-06-08T17:18:40.361Z,1.90
2019-06-08T17:21:12.606Z,2.20
2019-06-08T17:23:43.319Z,2.40
2019-06-08T17:26:14.179Z,2.33
2019-06-08T17:28:44.653Z,3.27
2019-06-08T17:31:17.066Z,2.63
2019-06-08T17:33:48.675Z,2.67
2019-06-08T17:36:20.244Z,2.60
2019-06-08T17:38:50.462Z,1.63
2019-06-08T17:41:21.051Z,2.47
2019-06-08T17:43:53.164Z,2.17
2019-06-08T17:46:24.655Z,2.87
2019-06-08T17:48:58.011Z,2.80
2019-06-08T17:51:30.992Z,2.50
2019-06-08T17:54:04.582Z,2.00
2019-06-08T17:56:37.147Z,1.80
2019-06-08T17:59:07.979Z,1.67
2019-06-08T18:01:39.753Z,1.77
2019-06-08T18:04:14.180Z,1.80
2019-06-08T18:06:47.429Z,1.50
2019-06-08T18:09:18.944Z,1.57
2019-06-08T18:11:50.336Z,1.70
2019-06-08T18:14:23.966Z,1.90
2019-06-08T18:16:54.196Z,1.80
2019-06-08T18:19:29.365Z,1.87
2019-06-08T18:22:05.765Z,1.30
2019-06-08T18:24:39.224Z,1.50
2019-06-08T18:27:12.139Z,1.20
2019-06-08T18:29:44.419Z,1.63
2019-06-08T18:32:19.123Z,1.63
2019-06-08T18:34:50.187Z,1.90
2019-06-08T18:37:20.496Z,1.77
2019-06-08T18:39:52.435Z,1.70
2019-06-08T18:42:28.497Z,1.97
2019-06-08T18:44:59.222Z,1.90
2019-06-08T18:47:31.279Z,1.70
2019-06-08T18:50:03.574Z,1.70
2019-06-08T18:52:35.327Z,1.77
2019-06-08T18:55:08.313Z,1.80
2019-06-08T18:57:41.024Z,1.70
2019-06-08T19:00:12.948Z,1.50
2019-06-08T19:02:49.049Z,1.60
2019-06-08T19:05:21.209Z,1.70
2019-06-08T19:07:53.345Z,1.57
2019-06-08T19:10:34.602Z,1.50
2019-06-08T19:13:07.947Z,1.60
2019-06-08T19:15:43.771Z,1.70
2019-06-08T19:18:11.908Z,1.83
2019-06-08T19:20:44.873Z,1.50
2019-06-08T19:23:14.555Z,1.50
2019-06-08T19:25:49.396Z,1.63
2019-06-08T19:28:35.138Z,1.60
2019-06-08T19:30:52.214Z,1.60
2019-06-08T19:33:23.762Z,1.63
2019-06-08T19:35:59.092Z,1.67
2019-06-08T19:38:54.494Z,1.40
2019-06-08T19:41:21.465Z,1.70
2019-06-08T19:43:54.068Z,1.50
2019-06-08T19:46:24.247Z,1.20
2019-06-08T19:48:55.636Z,1.43
2019-06-08T19:51:27.828Z,1.57
2019-06-08T19:53:58.667Z,1.50
2019-06-08T19:56:29.881Z,1.40
2019-06-08T19:59:04.671Z,1.30
2019-06-08T20:01:32.463Z,1.47
2019-06-08T20:04:03.087Z,1.67
2019-06-08T20:06:37.113Z,1.40
2019-06-08T20:09:09.473Z,1.40
2019-06-08T20:11:44.156Z,1.50
2019-06-08T20:14:12.572Z,1.50
2019-06-08T20:16:44.712Z,1.70
2019-06-08T20:19:17.569Z,1.70
2019-06-08T20:21:51.310Z,1.70
2019-06-08T20:24:20.015Z,1.80
2019-06-08T20:26:53.412Z,2.60
2019-06-08T20:29:24.546Z,3.30
2019-06-08T20:31:57.522Z,2.83
2019-06-08T20:34:27.267Z,2.80
2019-06-08T20:37:01.432Z,3.43
2019-06-08T20:39:31.806Z,2.17
2019-06-08T20:42:02.112Z,3.47
2019-06-08T20:44:32.435Z,2.87
2019-06-08T20:47:02.779Z,2.03
2019-06-08T20:49:33.905Z,1.80
2019-06-08T20:52:04.742Z,1.90
2019-06-08T20:54:37.321Z,1.90
2019-06-08T20:57:09.487Z,1.90
2019-06-08T20:59:40.234Z,4.90
2019-06-08T21:02:10.651Z,3.93
2019-06-08T21:04:40.907Z,5.87
2019-06-08T21:07:11.223Z,2.63
2019-06-08T21:09:42.140Z,1.70
2019-06-08T21:12:12.486Z,3.47
2019-06-08T21:14:42.777Z,1.90
2019-06-08T21:17:14.034Z,1.70
2019-06-08T21:19:46.717Z,1.80
2019-06-08T21:22:18.355Z,2.00
2019-06-08T21:24:59.742Z,1.90
2019-06-08T21:27:27.714Z,1.90
2019-06-08T21:30:06.859Z,2.00
2019-06-08T21:32:30.558Z,1.77
2019-06-08T21:35:00.780Z,2.17
2019-06-08T21:37:32.699Z,1.80
2019-06-08T21:40:04.312Z,2.63
2019-06-08T21:42:36.976Z,2.83
2019-06-08T21:45:09.517Z,4.20
2019-06-08T21:47:39.049Z,3.63
2019-06-08T21:50:09.808Z,3.10
2019-06-08T21:52:39.992Z,1.60
2019-06-08T21:55:10.231Z,1.70
2019-06-08T21:57:40.513Z,1.83
2019-06-08T22:00:34.840Z,1.50
2019-06-08T22:02:47.932Z,1.60
2019-06-08T22:05:18.351Z,1.90
2019-06-08T22:07:50.116Z,1.97
2019-06-08T22:10:20.504Z,1.80
2019-06-08T22:12:52.101Z,1.97
2019-06-08T22:15:22.620Z,1.87
2019-06-08T22:17:53.137Z,2.10
2019-06-08T22:20:23.911Z,2.13
2019-06-08T22:22:55.101Z,2.10
2019-06-08T22:25:27.714Z,1.97
2019-06-08T22:27:58.427Z,2.17
2019-06-08T22:30:39.306Z,1.97
2019-06-08T22:33:03.963Z,1.93
2019-06-08T22:35:37.339Z,2.20
2019-06-08T22:38:08.595Z,1.90
2019-06-08T22:40:38.912Z,2.00
2019-06-08T22:43:09.387Z,1.70
2019-06-08T22:45:40.568Z,1.80
2019-06-08T22:48:10.872Z,1.87
2019-06-08T22:50:41.173Z,1.80
2019-06-08T22:53:11.424Z,1.90
2019-06-08T22:55:44.248Z,1.70
2019-06-08T22:58:20.999Z,1.43
2019-06-08T23:00:56.018Z,1.80
2019-06-08T23:03:42.553Z,2.00
2019-06-08T23:06:14.045Z,1.77
2019-06-08T23:08:44.244Z,1.60
2019-06-08T23:11:14.446Z,1.90
2019-06-08T23:13:47.048Z,1.70
2019-06-08T23:16:18.164Z,1.70
2019-06-08T23:18:49.085Z,1.57
2019-06-08T23:21:20.278Z,1.80
2019-06-08T23:23:50.525Z,1.83
2019-06-08T23:26:20.884Z,2.10
2019-06-08T23:28:53.790Z,1.90
2019-06-08T23:31:25.656Z,1.80
2019-06-08T23:33:57.195Z,1.77
2019-06-08T23:36:47.112Z,1.70
2019-06-08T23:39:05.109Z,1.60
2019-06-08T23:41:37.720Z,1.77
2019-06-08T23:44:08.104Z,1.60
2019-06-08T23:46:38.365Z,1.80
2019-06-08T23:49:09.078Z,1.87
2019-06-08T23:51:40.430Z,2.03
2019-06-08T23:54:12.469Z,1.80
2019-06-08T23:56:42.951Z,1.77
2019-06-08T23:59:13.536Z,1.73
